createdAt,value
2019-01-26T00:00:37.731Z,8.90
2019-01-26T00:03:05.203Z,8.70
2019-01-26T00:05:32.653Z,8.60
2019-01-26T00:08:00.131Z,8.70
2019-01-26T00:10:27.613Z,8.70
2019-01-26T00:12:55.089Z,8.70
2019-01-26T00:15:22.535Z,8.80
2019-01-26T00:17:50.106Z,8.80
2019-01-26T00:20:17.573Z,8.70
2019-01-26T00:22:45.046Z,8.70
2019-01-26T00:25:12.605Z,8.70
2019-01-26T00:27:40.166Z,8.60
2019-01-26T00:30:08.415Z,8.50
2019-01-26T00:32:35.886Z,8.60
2019-01-26T00:35:04.465Z,8.70
2019-01-26T00:37:32.855Z,8.70
2019-01-26T00:40:00.362Z,8.60
2019-01-26T00:42:28.594Z,8.70
2019-01-26T00:44:56.069Z,8.70
2019-01-26T00:47:23.551Z,8.70
2019-01-26T00:49:51.009Z,8.60
2019-01-26T00:52:18.474Z,8.70
2019-01-26T00:54:45.933Z,8.80
2019-01-26T00:57:13.415Z,8.70
2019-01-26T00:59:41.664Z,8.80
2019-01-26T01:02:09.233Z,8.80
2019-01-26T01:04:36.817Z,8.90
2019-01-26T01:07:05.054Z,8.80
2019-01-26T01:09:32.514Z,8.80
2019-01-26T01:11:59.979Z,8.90
2019-01-26T01:14:27.440Z,8.90
2019-01-26T01:16:54.894Z,8.80
2019-01-26T01:19:22.801Z,8.80
2019-01-26T01:21:50.342Z,8.70
2019-01-26T01:24:18.512Z,8.80
2019-01-26T01:26:45.984Z,8.70
2019-01-26T01:29:13.453Z,8.80
2019-01-26T01:31:41.029Z,8.70
2019-01-26T01:34:08.494Z,8.80
2019-01-26T01:36:36.054Z,8.70
2019-01-26T01:39:04.730Z,8.70
2019-01-26T01:41:32.191Z,8.60
2019-01-26T01:43:59.642Z,8.60
2019-01-26T01:46:27.119Z,8.80
2019-01-26T01:48:54.682Z,8.90
2019-01-26T01:51:22.148Z,8.90
2019-01-26T01:53:49.706Z,9.00
2019-01-26T01:56:17.166Z,9.00
2019-01-26T01:58:44.720Z,9.00
2019-01-26T02:01:12.195Z,8.90
2019-01-26T02:03:39.718Z,9.00
2019-01-26T02:06:07.164Z,9.00
2019-01-26T02:08:34.642Z,8.90
2019-01-26T02:11:02.093Z,8.90
2019-01-26T02:13:29.557Z,8.80
2019-01-26T02:15:57.025Z,8.90
2019-01-26T02:18:24.530Z,8.70
2019-01-26T02:20:51.988Z,8.80
2019-01-26T02:23:19.435Z,8.90
2019-01-26T02:25:47.033Z,8.70
2019-01-26T02:28:14.552Z,8.70
2019-01-26T02:30:42.035Z,8.70
2019-01-26T02:33:09.487Z,8.70
2019-01-26T02:35:36.967Z,8.80
2019-01-26T02:38:04.539Z,8.80
2019-01-26T02:40:32.005Z,8.90
2019-01-26T02:42:59.466Z,8.90
2019-01-26T02:45:26.938Z,8.80
2019-01-26T02:47:54.480Z,8.90
2019-01-26T02:50:22.772Z,8.80
2019-01-26T02:52:50.232Z,8.70
2019-01-26T02:55:17.698Z,8.80
2019-01-26T02:57:46.662Z,8.70
2019-01-26T03:00:15.705Z,8.70
2019-01-26T03:02:43.929Z,8.70
2019-01-26T03:05:11.526Z,8.60
2019-01-26T03:07:39.082Z,8.60
2019-01-26T03:10:06.544Z,8.60
2019-01-26T03:12:34.456Z,8.60
2019-01-26T03:15:03.601Z,8.60
2019-01-26T03:17:31.086Z,8.50
2019-01-26T03:19:59.312Z,8.60
2019-01-26T03:22:26.751Z,8.60
2019-01-26T03:24:55.009Z,8.60
2019-01-26T03:27:22.474Z,8.60
2019-01-26T03:29:49.980Z,8.60
2019-01-26T03:32:17.491Z,8.50
2019-01-26T03:34:45.049Z,8.50
2019-01-26T03:37:12.610Z,8.50
2019-01-26T03:39:40.063Z,8.50
2019-01-26T03:42:07.521Z,8.60
2019-01-26T03:44:35.001Z,8.60
2019-01-26T03:47:02.542Z,8.60
2019-01-26T03:49:30.146Z,8.50
2019-01-26T03:51:57.603Z,8.50
2019-01-26T03:54:25.062Z,8.50
2019-01-26T03:56:52.529Z,8.50
2019-01-26T03:59:20.084Z,8.50
2019-01-26T04:01:47.652Z,8.50
2019-01-26T04:04:15.116Z,8.50
2019-01-26T04:06:42.582Z,8.50
2019-01-26T04:09:10.129Z,8.40
2019-01-26T04:11:37.709Z,8.40
2019-01-26T04:14:05.255Z,8.40
2019-01-26T04:16:32.727Z,8.50
2019-01-26T04:19:00.192Z,8.40
2019-01-26T04:21:28.501Z,8.60
2019-01-26T04:23:56.749Z,8.50
2019-01-26T04:26:24.215Z,8.50
2019-01-26T04:28:52.442Z,8.60
2019-01-26T04:31:19.902Z,8.60
2019-01-26T04:33:47.365Z,8.60
2019-01-26T04:36:14.856Z,8.50
2019-01-26T04:38:42.309Z,8.50
2019-01-26T04:41:09.803Z,8.60
2019-01-26T04:43:37.265Z,8.40
2019-01-26T04:46:04.719Z,8.50
2019-01-26T04:48:32.191Z,8.40
2019-01-26T04:50:59.669Z,8.40
2019-01-26T04:53:27.925Z,8.40
2019-01-26T04:55:55.485Z,8.40
2019-01-26T04:58:23.042Z,8.40
2019-01-26T05:00:50.621Z,8.40
2019-01-26T05:03:18.189Z,8.40
2019-01-26T05:05:45.754Z,8.40
2019-01-26T05:08:13.309Z,8.30
2019-01-26T05:10:40.769Z,8.40
2019-01-26T05:13:08.324Z,8.40
2019-01-26T05:15:35.889Z,8.40
2019-01-26T05:18:03.943Z,8.30
2019-01-26T05:20:31.421Z,8.30
2019-01-26T05:22:59.006Z,8.30
2019-01-26T05:25:26.474Z,8.30
2019-01-26T05:27:53.933Z,8.20
2019-01-26T05:30:22.459Z,8.30
2019-01-26T05:32:49.927Z,8.30
2019-01-26T05:35:17.430Z,8.30
2019-01-26T05:37:44.879Z,8.30
2019-01-26T05:40:13.742Z,8.30
2019-01-26T05:42:41.204Z,8.30
2019-01-26T05:45:08.668Z,8.30
2019-01-26T05:47:36.125Z,8.30
2019-01-26T05:50:04.717Z,8.30
2019-01-26T05:52:32.184Z,8.20
2019-01-26T05:54:59.646Z,8.30
2019-01-26T05:57:27.105Z,8.20
2019-01-26T05:59:54.566Z,8.30
2019-01-26T06:02:22.065Z,8.30
2019-01-26T06:04:49.543Z,8.20
2019-01-26T06:07:16.983Z,8.20
2019-01-26T06:09:44.457Z,8.20
2019-01-26T06:12:12.022Z,8.10
2019-01-26T06:14:39.490Z,8.20
2019-01-26T06:17:07.041Z,8.30
2019-01-26T06:19:34.502Z,8.20
2019-01-26T06:22:02.069Z,8.20
2019-01-26T06:24:29.657Z,8.20
2019-01-26T06:26:57.133Z,8.20
2019-01-26T06:29:25.909Z,8.20
2019-01-26T06:31:54.151Z,8.20
2019-01-26T06:34:21.722Z,8.10
2019-01-26T06:36:49.181Z,8.20
2019-01-26T06:39:16.662Z,8.10
2019-01-26T06:41:45.627Z,8.10
2019-01-26T06:44:13.090Z,8.10
2019-01-26T06:46:41.349Z,8.10
2019-01-26T06:49:08.865Z,8.20
2019-01-26T06:51:37.091Z,8.10
2019-01-26T06:54:04.597Z,8.10
2019-01-26T06:56:32.830Z,8.10
2019-01-26T06:59:00.333Z,8.10
2019-01-26T07:01:27.791Z,8.20
2019-01-26T07:03:55.259Z,8.10
2019-01-26T07:06:22.713Z,8.10
2019-01-26T07:08:50.309Z,8.10
2019-01-26T07:11:18.528Z,8.10
2019-01-26T07:13:46.039Z,8.10
2019-01-26T07:16:13.503Z,8.10
2019-01-26T07:18:42.490Z,8.10
2019-01-26T07:21:10.052Z,8.10
2019-01-26T07:23:37.492Z,8.10
2019-01-26T07:26:04.993Z,8.10
2019-01-26T07:28:32.470Z,8.10
2019-01-26T07:31:00.720Z,8.10
2019-01-26T07:33:28.173Z,8.10
2019-01-26T07:35:55.739Z,8.10
2019-01-26T07:38:23.304Z,8.10
2019-01-26T07:40:50.870Z,8.10
2019-01-26T07:43:18.436Z,8.10
2019-01-26T07:45:45.894Z,8.10
2019-01-26T07:48:16.985Z,8.20
2019-01-26T07:50:41.648Z,8.10
2019-01-26T07:53:09.202Z,8.10
2019-01-26T07:55:36.693Z,8.10
2019-01-26T07:58:04.219Z,8.10
2019-01-26T08:00:31.805Z,8.10
2019-01-26T08:02:59.277Z,8.10
2019-01-26T08:05:27.524Z,8.10
2019-01-26T08:07:55.019Z,8.10
2019-01-26T08:10:23.284Z,8.10
2019-01-26T08:12:50.889Z,8.00
2019-01-26T08:15:19.079Z,8.00
2019-01-26T08:17:46.584Z,8.00
2019-01-26T08:20:14.150Z,8.10
2019-01-26T08:22:42.393Z,8.10
2019-01-26T08:25:09.887Z,8.00
2019-01-26T08:27:37.776Z,8.00
2019-01-26T08:30:05.821Z,8.00
2019-01-26T08:32:33.279Z,8.10
2019-01-26T08:35:00.738Z,8.00
2019-01-26T08:37:28.225Z,8.00
2019-01-26T08:39:55.686Z,8.00
2019-01-26T08:42:23.153Z,7.90
2019-01-26T08:44:50.697Z,8.00
2019-01-26T08:47:18.478Z,8.00
2019-01-26T08:49:46.045Z,8.00
2019-01-26T08:52:13.524Z,8.00
2019-01-26T08:54:40.978Z,8.00
2019-01-26T08:57:08.446Z,8.00
2019-01-26T08:59:35.917Z,8.00
2019-01-26T09:04:56.849Z,8.10
2019-01-26T09:07:25.079Z,8.10
2019-01-26T09:09:52.652Z,8.00
2019-01-26T09:12:20.116Z,8.00
2019-01-26T09:14:47.675Z,8.10
2019-01-26T09:17:15.241Z,8.10
2019-01-26T09:19:42.797Z,8.10
2019-01-26T09:22:10.249Z,8.10
2019-01-26T09:24:37.736Z,8.10
2019-01-26T09:27:05.291Z,8.10
2019-01-26T09:29:32.766Z,8.00
2019-01-26T09:32:01.738Z,8.00
2019-01-26T09:34:29.212Z,8.00
2019-01-26T09:36:56.655Z,8.00
2019-01-26T09:39:24.155Z,8.00
2019-01-26T09:41:51.626Z,8.10
2019-01-26T09:44:19.081Z,8.20
2019-01-26T09:46:47.343Z,8.10
2019-01-26T09:49:14.808Z,8.10
2019-01-26T09:51:42.371Z,8.10
2019-01-26T09:54:09.931Z,8.10
2019-01-26T09:56:37.490Z,8.10
2019-01-26T09:59:04.950Z,8.10
2019-01-26T10:01:32.419Z,8.10
2019-01-26T10:03:59.990Z,8.20
2019-01-26T10:06:27.453Z,8.20
2019-01-26T10:08:54.916Z,8.20
2019-01-26T10:11:23.145Z,8.30
2019-01-26T10:13:50.608Z,8.20
2019-01-26T10:16:18.103Z,8.30
2019-01-26T10:18:45.575Z,8.20
2019-01-26T10:21:13.026Z,8.30
2019-01-26T10:23:40.607Z,8.30
2019-01-26T10:26:08.835Z,8.40
2019-01-26T10:28:36.297Z,8.30
2019-01-26T10:31:03.783Z,8.30
2019-01-26T10:33:31.242Z,8.30
2019-01-26T10:36:14.538Z,8.40
2019-01-26T10:38:43.112Z,8.30
2019-01-26T10:41:11.325Z,8.40
2019-01-26T10:43:44.393Z,8.40
2019-01-26T10:46:11.913Z,8.40
2019-01-26T10:48:39.506Z,8.40
2019-01-26T10:51:06.963Z,8.50
2019-01-26T10:53:35.195Z,8.50
2019-01-26T10:56:02.655Z,8.40
2019-01-26T10:58:30.130Z,8.50
2019-01-26T11:00:57.591Z,8.50
2019-01-26T11:03:25.070Z,8.50
2019-01-26T11:05:52.523Z,8.50
2019-01-26T11:08:21.499Z,8.50
2019-01-26T11:10:48.984Z,8.40
2019-01-26T11:13:16.448Z,8.40
2019-01-26T11:15:44.249Z,8.50
2019-01-26T11:18:12.480Z,8.50
2019-01-26T11:20:39.937Z,8.50
2019-01-26T11:23:07.383Z,8.50
2019-01-26T11:25:34.970Z,8.50
2019-01-26T11:28:02.442Z,8.50
2019-01-26T11:30:29.899Z,8.40
2019-01-26T11:32:57.450Z,8.50
2019-01-26T11:35:24.926Z,8.50
2019-01-26T11:37:52.490Z,8.50
2019-01-26T11:40:20.519Z,8.50
2019-01-26T11:42:47.969Z,8.50
2019-01-26T11:45:20.988Z,8.50
2019-01-26T11:47:48.442Z,8.60
2019-01-26T11:50:19.390Z,8.60
2019-01-26T11:52:46.964Z,8.60
2019-01-26T11:55:14.429Z,8.60
2019-01-26T11:57:42.443Z,8.60
2019-01-26T12:00:14.155Z,8.60
2019-01-26T12:02:41.615Z,8.60
2019-01-26T12:05:09.076Z,8.70
2019-01-26T12:07:36.619Z,8.70
2019-01-26T12:10:04.073Z,8.70
2019-01-26T12:12:31.585Z,8.70
2019-01-26T12:14:59.055Z,8.70
2019-01-26T12:17:26.509Z,8.70
2019-01-26T12:19:53.971Z,8.70
2019-01-26T12:22:21.528Z,8.70
2019-01-26T12:24:49.001Z,8.70
2019-01-26T12:27:16.453Z,8.70
2019-01-26T12:29:44.938Z,8.70
2019-01-26T12:32:12.404Z,8.60
2019-01-26T12:34:39.968Z,8.60
2019-01-26T12:37:07.427Z,8.60
2019-01-26T12:39:34.961Z,8.50
2019-01-26T12:42:02.429Z,8.50
2019-01-26T12:44:29.890Z,8.50
2019-01-26T12:46:57.342Z,8.50
2019-01-26T12:49:29.514Z,8.50
2019-01-26T12:51:52.302Z,8.50
2019-01-26T12:54:19.775Z,8.40
2019-01-26T12:56:47.235Z,8.40
2019-01-26T12:59:14.679Z,8.40
2019-01-26T13:01:42.143Z,8.40
2019-01-26T13:04:09.606Z,8.40
2019-01-26T13:06:37.063Z,8.40
2019-01-26T13:09:04.536Z,8.40
2019-01-26T13:11:32.804Z,8.30
2019-01-26T13:14:00.267Z,8.30
2019-01-26T13:16:28.163Z,8.30
2019-01-26T13:18:55.314Z,8.40
2019-01-26T13:21:23.581Z,8.30
2019-01-26T13:23:51.224Z,8.30
2019-01-26T13:26:18.668Z,8.30
2019-01-26T13:28:46.171Z,8.30
2019-01-26T13:31:14.419Z,8.30
2019-01-26T13:33:41.893Z,8.30
2019-01-26T13:36:09.382Z,8.30
2019-01-26T13:38:36.841Z,8.30
2019-01-26T13:41:05.076Z,8.30
2019-01-26T13:43:32.533Z,8.30
2019-01-26T13:46:00.038Z,8.30
2019-01-26T13:48:27.498Z,8.30
2019-01-26T13:50:54.974Z,8.30
2019-01-26T13:53:22.434Z,8.30
2019-01-26T13:55:49.905Z,8.30
2019-01-26T13:58:17.356Z,8.30
2019-01-26T14:00:45.629Z,8.30
2019-01-26T14:03:13.085Z,8.30
2019-01-26T14:05:40.545Z,8.30
2019-01-26T14:08:08.026Z,8.30
2019-01-26T14:10:35.490Z,8.30
2019-01-26T14:13:03.952Z,8.30
2019-01-26T14:15:31.424Z,8.30
2019-01-26T14:17:58.883Z,8.30
2019-01-26T14:20:26.339Z,8.30
2019-01-26T14:22:53.838Z,8.30
2019-01-26T14:25:22.072Z,8.30
2019-01-26T14:27:49.534Z,8.30
2019-01-26T14:30:38.499Z,8.30
2019-01-26T14:33:05.988Z,8.30
2019-01-26T14:35:33.529Z,8.30
2019-01-26T14:38:00.998Z,8.30
2019-01-26T14:40:28.564Z,8.30
2019-01-26T14:42:56.013Z,8.30
2019-01-26T14:45:23.469Z,8.30
2019-01-26T14:47:50.933Z,8.30
2019-01-26T14:50:18.498Z,8.30
2019-01-26T14:52:45.961Z,8.20
2019-01-26T14:55:15.231Z,8.20
2019-01-26T14:57:42.728Z,8.20
2019-01-26T15:03:04.359Z,8.20
2019-01-26T15:05:31.822Z,8.20
2019-01-26T15:07:59.277Z,8.20
2019-01-26T15:10:26.751Z,8.20
2019-01-26T15:12:54.202Z,8.20
2019-01-26T15:15:21.671Z,8.20
2019-01-26T15:17:49.227Z,8.20
2019-01-26T15:20:16.689Z,8.20
2019-01-26T15:22:44.265Z,8.20
2019-01-26T15:25:11.819Z,8.20
2019-01-26T15:27:39.407Z,8.20
2019-01-26T15:30:09.268Z,8.30
2019-01-26T15:32:36.741Z,8.20
2019-01-26T15:35:04.213Z,8.10
2019-01-26T15:37:31.665Z,8.10
2019-01-26T15:39:59.135Z,8.10
2019-01-26T15:42:26.600Z,8.00
2019-01-26T15:44:54.060Z,8.00
2019-01-26T15:47:21.548Z,8.00
2019-01-26T15:49:49.011Z,8.00
2019-01-26T15:52:16.562Z,8.00
2019-01-26T15:54:44.035Z,8.00
2019-01-26T15:57:11.486Z,8.00
2019-01-26T15:59:38.955Z,7.90
2019-01-26T16:02:06.418Z,8.00
2019-01-26T16:04:33.871Z,8.00
2019-01-26T16:07:01.398Z,7.90
2019-01-26T16:09:28.867Z,8.00
2019-01-26T16:11:56.320Z,8.00
2019-01-26T16:14:23.773Z,8.00
2019-01-26T16:16:51.241Z,8.00
2019-01-26T16:19:18.708Z,8.10
2019-01-26T16:21:46.195Z,8.10
2019-01-26T16:24:13.666Z,8.10
2019-01-26T16:26:41.181Z,8.20
2019-01-26T16:29:08.639Z,8.10
2019-01-26T16:31:36.857Z,8.20
2019-01-26T16:34:04.303Z,8.20
2019-01-26T16:36:31.790Z,8.20
2019-01-26T16:39:00.005Z,8.20
2019-01-26T16:41:27.527Z,8.20
2019-01-26T16:43:55.002Z,8.20
2019-01-26T16:46:22.567Z,8.30
2019-01-26T16:48:50.135Z,8.20
2019-01-26T16:51:17.708Z,8.30
2019-01-26T16:53:45.171Z,8.30
2019-01-26T16:56:12.726Z,8.20
2019-01-26T16:58:40.391Z,8.30
2019-01-26T17:01:07.844Z,8.30
2019-01-26T17:03:35.366Z,8.30
2019-01-26T17:06:03.797Z,8.20
2019-01-26T17:08:31.271Z,8.20
2019-01-26T17:10:58.728Z,8.20
2019-01-26T17:13:26.202Z,8.20
2019-01-26T17:15:53.748Z,8.20
2019-01-26T17:18:21.213Z,8.20
2019-01-26T17:20:48.674Z,8.20
2019-01-26T17:23:17.651Z,8.10
2019-01-26T17:25:45.135Z,8.10
2019-01-26T17:28:12.708Z,8.10
2019-01-26T17:30:40.166Z,8.10
2019-01-26T17:33:07.947Z,8.10
2019-01-26T17:35:35.160Z,8.10
2019-01-26T17:38:03.584Z,8.10
2019-01-26T17:40:31.057Z,8.10
2019-01-26T17:42:59.271Z,8.10
2019-01-26T17:45:26.830Z,8.10
2019-01-26T17:47:54.279Z,8.20
2019-01-26T17:50:22.555Z,8.20
2019-01-26T17:52:50.793Z,8.30
2019-01-26T17:55:18.244Z,8.30
2019-01-26T17:57:45.697Z,8.30
2019-01-26T18:00:16.051Z,8.30
2019-01-26T18:02:43.599Z,8.30
2019-01-26T18:05:11.169Z,8.30
2019-01-26T18:07:38.725Z,8.40
2019-01-26T18:10:07.649Z,8.30
2019-01-26T18:12:35.126Z,8.20
2019-01-26T18:15:05.103Z,8.20
2019-01-26T18:17:35.093Z,8.20
2019-01-26T18:20:03.481Z,8.20
2019-01-26T18:22:30.948Z,8.20
2019-01-26T18:24:58.392Z,8.20
2019-01-26T18:27:25.847Z,8.10
2019-01-26T18:29:53.307Z,8.10
2019-01-26T18:32:20.981Z,8.10
2019-01-26T18:34:48.301Z,8.00
2019-01-26T18:37:16.519Z,8.00
2019-01-26T18:39:44.020Z,8.00
2019-01-26T18:42:11.476Z,8.00
2019-01-26T18:44:39.046Z,8.00
2019-01-26T18:47:06.600Z,8.00
2019-01-26T18:49:34.056Z,8.00
2019-01-26T18:52:01.536Z,8.00
2019-01-26T18:54:28.994Z,8.00
2019-01-26T18:56:56.619Z,8.00
2019-01-26T18:59:24.379Z,8.00
2019-01-26T19:01:52.393Z,8.00
2019-01-26T19:04:19.865Z,8.00
2019-01-26T19:06:47.441Z,8.00
2019-01-26T19:09:14.894Z,8.00
2019-01-26T19:11:42.446Z,8.00
2019-01-26T19:14:09.925Z,8.00
2019-01-26T19:16:37.378Z,8.00
2019-01-26T19:19:04.846Z,8.00
2019-01-26T19:21:32.302Z,8.00
2019-01-26T19:23:59.882Z,8.10
2019-01-26T19:26:27.363Z,8.00
2019-01-26T19:28:55.578Z,8.10
2019-01-26T19:31:23.032Z,8.00
2019-01-26T19:33:50.501Z,8.10
2019-01-26T19:36:18.052Z,8.10
2019-01-26T19:38:45.522Z,8.10
2019-01-26T19:41:13.023Z,8.10
2019-01-26T19:43:40.483Z,8.20
2019-01-26T19:46:08.045Z,8.20
2019-01-26T19:48:35.515Z,8.20
2019-01-26T19:51:09.883Z,8.20
2019-01-26T19:53:31.855Z,8.20
2019-01-26T19:55:59.330Z,8.20
2019-01-26T19:58:26.774Z,8.20
2019-01-26T20:00:54.496Z,8.30
2019-01-26T20:03:22.048Z,8.20
2019-01-26T20:05:50.286Z,8.30
2019-01-26T20:08:17.777Z,8.20
2019-01-26T20:10:45.215Z,8.20
2019-01-26T20:13:12.684Z,8.30
2019-01-26T20:15:40.149Z,8.20
2019-01-26T20:18:07.603Z,8.20
2019-01-26T20:20:35.998Z,8.20
2019-01-26T20:23:04.333Z,8.30
2019-01-26T20:25:31.822Z,8.20
2019-01-26T20:27:59.302Z,8.20
2019-01-26T20:30:29.555Z,8.20
2019-01-26T20:32:57.812Z,8.20
2019-01-26T20:35:25.372Z,8.20
2019-01-26T20:37:52.829Z,8.20
2019-01-26T20:40:20.404Z,8.20
2019-01-26T20:42:47.955Z,8.20
2019-01-26T20:45:16.301Z,8.20
2019-01-26T20:47:43.958Z,8.20
2019-01-26T20:50:11.430Z,8.20
2019-01-26T20:52:38.881Z,8.20
2019-01-26T20:55:06.343Z,8.20
2019-01-26T20:57:33.823Z,8.20
2019-01-26T21:00:01.278Z,8.20
2019-01-26T21:02:28.740Z,8.20
2019-01-26T21:04:56.202Z,8.10
2019-01-26T21:07:23.874Z,8.20
2019-01-26T21:09:51.325Z,8.20
2019-01-26T21:12:18.783Z,8.20
2019-01-26T21:14:46.242Z,8.20
2019-01-26T21:17:13.751Z,8.20
2019-01-26T21:19:41.207Z,8.10
2019-01-26T21:22:08.659Z,8.10
2019-01-26T21:24:36.119Z,8.20
2019-01-26T21:27:04.588Z,8.20
2019-01-26T21:29:32.090Z,8.10
2019-01-26T21:32:00.327Z,8.20
2019-01-26T21:34:27.776Z,8.20
2019-01-26T21:36:55.294Z,8.20
2019-01-26T21:39:22.839Z,8.10
2019-01-26T21:41:50.323Z,8.10
2019-01-26T21:44:17.886Z,8.10
2019-01-26T21:46:45.434Z,8.10
2019-01-26T21:49:14.671Z,8.10
2019-01-26T21:51:42.178Z,8.10
2019-01-26T21:54:09.638Z,8.10
2019-01-26T21:56:37.566Z,8.10
2019-01-26T21:59:05.789Z,8.00
2019-01-26T22:01:33.239Z,8.00
2019-01-26T22:04:02.624Z,8.00
2019-01-26T22:06:30.106Z,8.00
2019-01-26T22:08:57.693Z,8.00
2019-01-26T22:11:25.443Z,8.00
2019-01-26T22:13:53.004Z,8.00
2019-01-26T22:16:20.471Z,8.00
2019-01-26T22:18:47.930Z,8.00
2019-01-26T22:21:15.426Z,7.90
2019-01-26T22:23:42.875Z,8.00
2019-01-26T22:26:10.340Z,7.90
2019-01-26T22:28:37.799Z,8.00
2019-01-26T22:31:05.288Z,8.00
2019-01-26T22:33:32.834Z,7.90
2019-01-26T22:36:00.277Z,7.90
2019-01-26T22:38:27.734Z,7.90
2019-01-26T22:40:55.207Z,7.90
2019-01-26T22:43:22.693Z,7.90
2019-01-26T22:45:50.949Z,7.80
2019-01-26T22:48:20.718Z,7.90
2019-01-26T22:50:48.958Z,7.80
2019-01-26T22:53:17.309Z,7.80
2019-01-26T22:55:45.627Z,7.80
2019-01-26T22:58:13.086Z,7.80
2019-01-26T23:03:39.170Z,7.80
2019-01-26T23:09:11.708Z,7.80
2019-01-26T23:11:45.884Z,7.80
2019-01-26T23:14:47.689Z,7.90
2019-01-26T23:17:40.834Z,7.90
2019-01-26T23:20:12.412Z,7.90
2019-01-26T23:25:39.913Z,7.90
2019-01-26T23:28:14.077Z,7.90
2019-01-26T23:33:46.197Z,8.00
2019-01-26T23:36:13.636Z,8.00
2019-01-26T23:38:41.207Z,8.00
2019-01-26T23:41:09.023Z,8.00
2019-01-26T23:43:37.271Z,8.00
2019-01-26T23:46:04.748Z,8.00
2019-01-26T23:48:32.237Z,8.00
2019-01-26T23:51:00.501Z,8.00
2019-01-26T23:53:27.940Z,8.00
2019-01-26T23:55:55.414Z,8.00
2019-01-26T23:58:22.881Z,8.00
